createdAt,value
2022-08-03T00:04:20.664Z,5.20
2022-08-03T00:10:22.421Z,9.02
2022-08-03T00:16:25.595Z,5.63
2022-08-03T00:22:27.451Z,8.95
2022-08-03T00:28:29.472Z,4.22
2022-08-03T00:34:36.513Z,7.85
2022-08-03T00:40:53.760Z,9.13
2022-08-03T00:46:55.529Z,8.68
2022-08-03T00:52:59.706Z,5.38
2022-08-03T00:59:03.382Z,7.93
2022-08-03T01:05:05.610Z,5.85
2022-08-03T01:11:17.645Z,5.53
2022-08-03T01:17:36.753Z,5.22
2022-08-03T01:23:44.750Z,7.28
2022-08-03T01:29:57.119Z,6.97
2022-08-03T01:36:16.488Z,7.68
2022-08-03T01:42:19.947Z,7.20
2022-08-03T01:48:22.514Z,7.72
2022-08-03T01:54:26.202Z,5.20
2022-08-03T02:00:28.286Z,8.90
2022-08-03T02:06:59.797Z,8.15
2022-08-03T02:12:59.044Z,6.18
2022-08-03T02:19:04.332Z,9.45
2022-08-03T02:25:08.438Z,7.55
2022-08-03T02:31:16.588Z,7.32
2022-08-03T02:37:19.841Z,6.53
2022-08-03T02:43:24.248Z,6.13
2022-08-03T02:49:40.830Z,8.70
2022-08-03T02:55:50.673Z,6.25
2022-08-03T03:01:54.706Z,7.45
2022-08-03T03:07:57.127Z,12.65
2022-08-03T03:14:00.769Z,8.05
2022-08-03T03:20:03.846Z,8.18
2022-08-03T03:26:06.630Z,8.00
2022-08-03T03:32:09.273Z,6.68
2022-08-03T03:38:11.856Z,10.82
2022-08-03T03:44:15.446Z,8.60
2022-08-03T03:50:19.366Z,8.52
2022-08-03T03:56:21.285Z,9.82
2022-08-03T04:02:23.338Z,8.52
2022-08-03T04:08:43.813Z,8.60
2022-08-03T04:14:53.708Z,8.63
2022-08-03T04:20:57.749Z,6.85
2022-08-03T04:27:02.694Z,6.43
2022-08-03T04:33:05.439Z,7.85
2022-08-03T04:39:12.496Z,8.18
2022-08-03T04:45:16.295Z,7.50
2022-08-03T04:51:18.457Z,8.20
2022-08-03T04:57:23.078Z,7.60
2022-08-03T05:03:25.355Z,6.22
2022-08-03T05:09:50.455Z,6.50
2022-08-03T05:15:49.395Z,6.63
2022-08-03T05:21:52.848Z,5.40
2022-08-03T05:27:54.880Z,6.85
2022-08-03T05:33:57.569Z,6.43
2022-08-03T05:39:59.406Z,6.05
2022-08-03T05:46:08.107Z,5.75
2022-08-03T05:52:16.986Z,6.25
2022-08-03T05:58:19.885Z,4.90
2022-08-03T06:04:21.818Z,5.80
2022-08-03T06:10:36.980Z,4.47
2022-08-03T06:16:39.943Z,5.30
2022-08-03T06:22:50.881Z,6.00
2022-08-03T06:29:03.844Z,4.03
2022-08-03T06:35:10.146Z,6.10
2022-08-03T06:41:11.988Z,4.15
2022-08-03T06:47:13.820Z,4.22
2022-08-03T06:53:21.190Z,4.47
2022-08-03T07:05:49.167Z,5.18
2022-08-03T07:11:50.932Z,5.05
2022-08-03T07:17:52.758Z,3.63
2022-08-03T07:23:54.613Z,3.33
2022-08-03T07:29:58.490Z,4.15
2022-08-03T07:36:00.330Z,6.10
2022-08-03T07:42:02.320Z,5.95
2022-08-03T07:48:08.778Z,2.83
2022-08-03T07:54:14.581Z,6.72
2022-08-03T08:00:18.804Z,2.92
2022-08-03T08:06:21.651Z,4.10
2022-08-03T08:12:23.698Z,4.22
2022-08-03T08:18:25.863Z,5.68
2022-08-03T08:24:30.288Z,5.55
2022-08-03T08:30:33.782Z,7.70
2022-08-03T08:36:37.089Z,2.20
2022-08-03T08:42:51.873Z,5.07
2022-08-03T08:49:00.476Z,4.50
2022-08-03T09:01:13.525Z,4.47
2022-08-03T09:07:20.609Z,2.05
2022-08-03T09:19:24.623Z,4.50
2022-08-03T09:25:34.781Z,3.70
2022-08-03T09:31:44.374Z,2.42
2022-08-03T09:38:12.805Z,4.40
2022-08-03T09:44:09.012Z,3.78
2022-08-03T09:50:26.615Z,5.10
2022-08-03T09:56:42.187Z,1.83
2022-08-03T10:02:45.363Z,5.95
2022-08-03T10:08:47.632Z,2.22
2022-08-03T10:14:49.666Z,3.50
2022-08-03T10:20:53.833Z,4.32
2022-08-03T10:27:09.895Z,4.40
2022-08-03T10:33:50.183Z,6.32
2022-08-03T10:39:56.353Z,6.28
2022-08-03T10:46:00.355Z,2.22
2022-08-03T10:52:09.665Z,3.00
2022-08-03T10:58:15.112Z,3.03
2022-08-03T11:04:32.577Z,1.55
2022-08-03T11:10:35.354Z,2.20
2022-08-03T11:16:41.872Z,4.00
2022-08-03T11:22:54.620Z,3.13
2022-08-03T11:29:29.783Z,3.38
2022-08-03T11:35:35.471Z,1.90
2022-08-03T11:41:43.338Z,1.60
2022-08-03T11:47:50.690Z,2.25
2022-08-03T11:53:57.592Z,2.30
2022-08-03T11:59:59.905Z,4.78
2022-08-03T12:06:02.441Z,3.95
2022-08-03T12:12:06.570Z,3.05
2022-08-03T12:18:17.075Z,4.88
2022-08-03T12:24:18.915Z,2.35
2022-08-03T12:30:20.855Z,1.83
2022-08-03T12:36:25.913Z,1.90
2022-08-03T12:42:35.751Z,2.95
2022-08-03T12:48:54.640Z,2.97
2022-08-03T12:54:58.176Z,4.50
2022-08-03T13:01:00.095Z,2.45
2022-08-03T13:07:14.284Z,1.95
2022-08-03T13:13:16.753Z,4.70
2022-08-03T13:19:18.885Z,1.40
2022-08-03T13:25:20.836Z,4.28
2022-08-03T13:31:22.719Z,3.00
2022-08-03T13:37:25.318Z,2.25
2022-08-03T13:43:27.384Z,2.35
2022-08-03T13:49:30.026Z,3.30
2022-08-03T13:55:31.926Z,1.83
2022-08-03T14:01:54.302Z,4.90
2022-08-03T14:07:58.522Z,3.17
2022-08-03T14:14:06.766Z,1.90
2022-08-03T14:20:38.959Z,2.67
2022-08-03T14:26:31.791Z,1.60
2022-08-03T14:32:33.713Z,1.48
2022-08-03T14:38:35.646Z,2.03
2022-08-03T14:44:37.479Z,3.67
2022-08-03T14:50:44.227Z,3.33
2022-08-03T14:56:48.809Z,2.50
2022-08-03T15:02:50.840Z,2.13
2022-08-03T15:09:21.688Z,2.75
2022-08-03T15:15:14.987Z,2.15
2022-08-03T15:21:20.825Z,1.02
2022-08-03T15:28:02.771Z,1.23
2022-08-03T15:34:00.914Z,2.25
2022-08-03T15:40:03.629Z,5.35
2022-08-03T15:46:28.679Z,2.38
2022-08-03T15:52:28.031Z,5.28
2022-08-03T15:59:03.571Z,2.58
2022-08-03T16:04:52.345Z,1.85
2022-08-03T16:10:54.279Z,2.70
2022-08-03T16:16:56.905Z,2.88
2022-08-03T16:22:58.983Z,3.65
2022-08-03T16:29:03.624Z,2.63
2022-08-03T16:35:06.454Z,1.67
2022-08-03T16:41:08.290Z,3.63
2022-08-03T16:47:10.128Z,3.42
2022-08-03T16:53:51.570Z,1.85
2022-08-03T16:59:47.328Z,3.88
2022-08-03T17:05:52.890Z,2.20
2022-08-03T17:11:54.637Z,2.60
2022-08-03T17:18:07.739Z,2.13
2022-08-03T17:24:20.475Z,4.03
2022-08-03T17:30:22.294Z,3.03
2022-08-03T17:36:47.581Z,2.42
2022-08-03T17:42:50.455Z,7.82
2022-08-03T17:48:54.066Z,3.15
2022-08-03T17:55:56.146Z,7.10
2022-08-03T18:02:30.437Z,3.95
2022-08-03T18:08:37.060Z,6.82
2022-08-03T18:14:57.918Z,3.07
2022-08-03T18:21:09.323Z,4.07
2022-08-03T18:27:21.493Z,3.83
2022-08-03T18:34:16.593Z,5.65
2022-08-03T18:39:52.877Z,3.80
2022-08-03T18:45:58.123Z,5.00
2022-08-03T18:52:04.797Z,5.25
2022-08-03T18:58:17.985Z,5.03
2022-08-03T19:04:33.386Z,2.05
2022-08-03T19:10:38.230Z,3.45
2022-08-03T19:16:47.248Z,4.32
2022-08-03T19:22:51.354Z,2.88
2022-08-03T19:28:59.451Z,3.38
2022-08-03T19:35:05.493Z,4.63
2022-08-03T19:41:23.488Z,5.03
2022-08-03T19:47:31.891Z,6.70
2022-08-03T19:53:37.229Z,5.05
2022-08-03T19:59:50.181Z,5.45
2022-08-03T20:05:54.174Z,4.40
2022-08-03T20:11:59.717Z,4.53
2022-08-03T20:18:01.597Z,4.43
2022-08-03T20:24:24.255Z,10.85
2022-08-03T20:30:27.299Z,23.33
2022-08-03T20:36:30.464Z,14.00
2022-08-03T20:42:35.856Z,11.65
2022-08-03T20:48:37.984Z,4.82
2022-08-03T20:54:41.427Z,6.22
2022-08-03T21:00:44.325Z,5.97
2022-08-03T21:06:57.403Z,3.30
2022-08-03T21:13:38.231Z,8.13
2022-08-03T21:19:52.159Z,7.68
2022-08-03T21:25:54.652Z,6.32
2022-08-03T21:31:58.030Z,3.80
2022-08-03T21:38:18.521Z,3.60
2022-08-03T21:44:25.117Z,7.20
2022-08-03T21:50:34.164Z,12.23
2022-08-03T21:56:41.019Z,8.75
2022-08-03T22:02:54.524Z,5.23
2022-08-03T22:08:58.166Z,9.80
2022-08-03T22:15:02.300Z,8.02
2022-08-03T22:21:06.649Z,6.05
2022-08-03T22:27:30.964Z,3.63
2022-08-03T22:33:36.639Z,6.95
2022-08-03T22:39:39.867Z,8.38
2022-08-03T22:46:09.024Z,5.75
2022-08-03T22:52:10.146Z,6.05
2022-08-03T22:58:15.558Z,7.13
2022-08-03T23:04:18.672Z,12.43
2022-08-03T23:10:27.229Z,7.30
2022-08-03T23:16:30.095Z,5.75
2022-08-03T23:22:38.946Z,5.90
2022-08-03T23:28:48.634Z,7.50
2022-08-03T23:35:12.042Z,9.98
2022-08-03T23:41:14.812Z,5.63
2022-08-03T23:47:16.635Z,6.13
2022-08-03T23:53:25.692Z,6.65
2022-08-03T23:59:49.128Z,10.07
